createdAt,value
2022-10-18T00:02:20.186Z,81.10
2022-10-18T00:04:47.246Z,60.03
2022-10-18T00:07:14.500Z,79.53
2022-10-18T00:09:41.291Z,57.78
2022-10-18T00:12:08.255Z,59.28
2022-10-18T00:14:35.106Z,56.92
2022-10-18T00:17:01.858Z,62.30
2022-10-18T00:19:29.466Z,90.75
2022-10-18T00:21:56.571Z,59.08
2022-10-18T00:24:23.335Z,58.75
2022-10-18T00:26:50.119Z,58.90
2022-10-18T00:29:18.137Z,65.10
2022-10-18T00:31:45.342Z,156.80
2022-10-18T00:34:14.370Z,109.47
2022-10-18T00:36:41.910Z,141.93
2022-10-18T00:39:12.502Z,158.48
2022-10-18T00:41:39.278Z,155.47
2022-10-18T00:44:12.027Z,68.80
2022-10-18T00:46:41.137Z,55.22
2022-10-18T00:49:16.188Z,51.17
2022-10-18T00:51:46.853Z,47.25
2022-10-18T00:54:15.114Z,45.57
2022-10-18T00:56:44.772Z,53.75
2022-10-18T00:59:13.822Z,36.35
2022-10-18T01:01:40.666Z,36.92
2022-10-18T01:04:07.422Z,39.60
2022-10-18T01:06:41.768Z,38.07
2022-10-18T01:09:23.473Z,57.25
2022-10-18T01:12:22.419Z,65.68
2022-10-18T01:15:03.480Z,91.32
2022-10-18T01:17:42.663Z,67.95
2022-10-18T01:20:46.910Z,61.50
2022-10-18T01:23:38.357Z,56.08
2022-10-18T01:26:10.587Z,36.72
2022-10-18T01:28:58.749Z,38.60
2022-10-18T01:31:47.992Z,38.80
2022-10-18T01:34:17.978Z,33.77
2022-10-18T01:36:49.714Z,37.42
2022-10-18T01:39:21.878Z,35.22
2022-10-18T01:41:49.911Z,36.70
2022-10-18T01:44:23.569Z,37.08
2022-10-18T01:46:53.819Z,37.80
2022-10-18T01:49:20.952Z,32.67
2022-10-18T01:51:47.862Z,40.80
2022-10-18T01:54:21.741Z,34.92
2022-10-18T01:57:03.566Z,35.55
2022-10-18T01:59:59.702Z,36.17
2022-10-18T02:02:32.758Z,37.55
2022-10-18T02:05:30.224Z,37.80
2022-10-18T02:08:12.343Z,37.60
2022-10-18T02:11:09.573Z,33.60
2022-10-18T02:13:41.924Z,34.53
2022-10-18T02:16:13.348Z,29.00
2022-10-18T02:18:48.571Z,28.40
2022-10-18T02:21:19.433Z,34.67
2022-10-18T02:23:47.386Z,29.65
2022-10-18T02:26:15.877Z,32.83
2022-10-18T02:28:43.190Z,38.85
2022-10-18T02:31:17.853Z,34.85
2022-10-18T02:34:16.839Z,51.33
2022-10-18T02:36:48.484Z,122.68
2022-10-18T02:39:22.538Z,199.80
2022-10-18T02:41:49.432Z,120.57
2022-10-18T02:44:16.468Z,35.67
2022-10-18T02:46:43.416Z,31.70
2022-10-18T02:49:10.162Z,32.25
2022-10-18T02:51:36.905Z,29.00
2022-10-18T02:54:03.701Z,30.35
2022-10-18T02:56:30.556Z,42.28
2022-10-18T02:58:57.371Z,34.50
2022-10-18T03:01:24.131Z,34.50
2022-10-18T03:03:51.490Z,33.00
2022-10-18T03:06:18.265Z,36.63
2022-10-18T03:08:45.561Z,34.80
2022-10-18T03:11:12.260Z,30.77
2022-10-18T03:13:38.969Z,34.22
2022-10-18T03:16:05.938Z,36.05
2022-10-18T03:18:32.651Z,36.95
2022-10-18T03:20:59.459Z,40.20
2022-10-18T03:23:26.214Z,38.83
2022-10-18T03:25:52.996Z,37.10
2022-10-18T03:28:19.831Z,36.65
2022-10-18T03:30:46.600Z,40.85
2022-10-18T03:33:13.372Z,37.42
2022-10-18T03:35:40.163Z,37.28
2022-10-18T03:38:06.945Z,36.70
2022-10-18T03:40:33.802Z,36.57
2022-10-18T03:43:00.543Z,38.63
2022-10-18T03:45:30.433Z,48.45
2022-10-18T03:47:58.342Z,47.25
2022-10-18T03:50:25.180Z,45.47
2022-10-18T03:52:51.954Z,117.47
2022-10-18T03:55:18.766Z,127.95
2022-10-18T03:57:45.517Z,113.30
2022-10-18T04:00:12.905Z,77.72
2022-10-18T04:02:40.755Z,54.17
2022-10-18T04:05:08.606Z,61.05
2022-10-18T04:10:04.448Z,44.17
2022-10-18T04:12:31.406Z,42.92
2022-10-18T04:14:58.408Z,55.72
2022-10-18T04:17:25.212Z,124.50
2022-10-18T04:19:51.879Z,92.22
2022-10-18T04:22:19.474Z,102.20
2022-10-18T04:24:46.586Z,57.78
2022-10-18T04:27:13.397Z,112.35
2022-10-18T04:29:40.089Z,101.63
2022-10-18T04:32:06.864Z,77.20
2022-10-18T04:34:33.601Z,94.50
2022-10-18T04:37:00.474Z,74.03
2022-10-18T04:39:27.619Z,91.47
2022-10-18T04:41:54.437Z,62.03
2022-10-18T04:44:21.107Z,59.47
2022-10-18T04:46:47.961Z,37.28
2022-10-18T04:49:14.736Z,80.05
2022-10-18T04:51:41.446Z,48.28
2022-10-18T04:54:08.223Z,88.78
2022-10-18T04:56:34.943Z,87.32
2022-10-18T04:59:01.723Z,69.30
2022-10-18T05:01:28.574Z,77.47
2022-10-18T05:03:55.503Z,76.55
2022-10-18T05:06:22.918Z,55.63
2022-10-18T05:08:50.030Z,77.82
2022-10-18T05:11:16.784Z,79.70
2022-10-18T05:13:45.985Z,94.50
2022-10-18T05:16:16.115Z,58.20
2022-10-18T05:18:43.314Z,78.57
2022-10-18T05:21:10.402Z,57.15
2022-10-18T05:23:37.061Z,66.03
2022-10-18T05:26:06.544Z,72.45
2022-10-18T05:28:39.648Z,73.28
2022-10-18T05:31:08.635Z,42.00
2022-10-18T05:33:35.849Z,46.28
2022-10-18T05:36:02.725Z,60.05
2022-10-18T05:38:32.819Z,38.75
2022-10-18T05:40:59.959Z,46.47
2022-10-18T05:43:30.072Z,49.40
2022-10-18T05:45:56.960Z,43.50
2022-10-18T05:48:23.806Z,37.17
2022-10-18T05:50:50.577Z,43.60
2022-10-18T05:53:36.757Z,36.40
2022-10-18T05:56:04.351Z,32.95
2022-10-18T05:58:31.120Z,37.35
2022-10-18T06:01:01.686Z,36.70
2022-10-18T06:03:30.320Z,56.28
2022-10-18T06:06:11.524Z,61.10
2022-10-18T06:08:39.605Z,103.07
2022-10-18T06:11:17.638Z,72.45
2022-10-18T06:13:46.783Z,78.47
2022-10-18T06:16:15.375Z,69.13
2022-10-18T06:18:42.339Z,79.93
2022-10-18T06:21:09.673Z,70.87
2022-10-18T06:23:36.425Z,91.40
2022-10-18T06:26:08.263Z,80.40
2022-10-18T06:28:36.575Z,68.85
2022-10-18T06:31:04.865Z,79.78
2022-10-18T06:33:32.752Z,68.88
2022-10-18T06:36:01.390Z,59.35
2022-10-18T06:38:29.308Z,65.18
2022-10-18T06:40:57.345Z,65.07
2022-10-18T06:43:24.288Z,45.70
2022-10-18T06:45:51.574Z,51.90
2022-10-18T06:50:59.511Z,40.50
2022-10-18T06:53:28.281Z,34.22
2022-10-18T06:56:08.355Z,53.13
2022-10-18T06:58:35.643Z,44.37
2022-10-18T07:01:10.273Z,55.78
2022-10-18T07:03:37.454Z,46.92
2022-10-18T07:06:06.603Z,47.53
2022-10-18T07:08:34.211Z,58.45
2022-10-18T07:11:01.170Z,93.80
2022-10-18T07:13:33.048Z,119.03
2022-10-18T07:16:06.064Z,61.72
2022-10-18T07:18:38.042Z,44.20
2022-10-18T07:21:07.231Z,41.63
2022-10-18T07:23:35.184Z,42.13
2022-10-18T07:26:04.268Z,66.70
2022-10-18T07:28:31.191Z,65.53
2022-10-18T07:31:01.298Z,87.32
2022-10-18T07:33:31.998Z,50.30
2022-10-18T07:36:03.808Z,98.63
2022-10-18T07:38:30.482Z,47.95
2022-10-18T07:41:01.531Z,38.03
2022-10-18T07:43:28.593Z,25.13
2022-10-18T07:45:57.970Z,62.70
2022-10-18T07:48:25.152Z,75.13
2022-10-18T07:50:52.092Z,67.10
2022-10-18T07:53:18.870Z,63.35
2022-10-18T07:55:45.799Z,108.35
2022-10-18T07:58:12.602Z,63.80
2022-10-18T08:00:40.354Z,19.67
2022-10-18T08:03:07.158Z,30.70
2022-10-18T08:05:33.924Z,28.67
2022-10-18T08:08:04.233Z,20.15
2022-10-18T08:10:35.356Z,16.70
2022-10-18T08:13:02.151Z,19.70
2022-10-18T08:15:28.884Z,17.10
2022-10-18T08:17:55.526Z,13.98
2022-10-18T08:20:30.529Z,15.73
2022-10-18T08:23:00.467Z,15.85
2022-10-18T08:25:28.471Z,19.03
2022-10-18T08:27:55.179Z,16.92
2022-10-18T08:30:23.405Z,16.17
2022-10-18T08:32:50.077Z,15.02
2022-10-18T08:35:16.826Z,14.45
2022-10-18T08:37:45.327Z,16.40
2022-10-18T08:40:15.770Z,15.35
2022-10-18T08:42:58.426Z,18.95
2022-10-18T08:45:41.027Z,17.88
2022-10-18T08:48:19.450Z,15.40
2022-10-18T08:50:46.823Z,15.13
2022-10-18T08:53:37.738Z,19.23
2022-10-18T08:56:14.718Z,21.65
2022-10-18T08:58:46.457Z,17.30
2022-10-18T09:01:37.747Z,18.00
2022-10-18T09:04:31.026Z,17.63
2022-10-18T09:07:17.963Z,17.40
2022-10-18T09:10:08.573Z,23.60
2022-10-18T09:12:54.027Z,18.65
2022-10-18T09:15:23.327Z,16.48
2022-10-18T09:18:13.997Z,15.50
2022-10-18T09:20:52.771Z,14.98
2022-10-18T09:23:46.327Z,14.70
2022-10-18T09:26:21.805Z,16.20
2022-10-18T09:28:55.271Z,15.50
2022-10-18T09:31:46.081Z,20.60
2022-10-18T09:34:25.854Z,20.25
2022-10-18T09:36:52.866Z,22.45
2022-10-18T09:39:24.984Z,17.70
2022-10-18T09:42:02.317Z,20.05
2022-10-18T09:44:35.942Z,16.83
2022-10-18T09:47:17.015Z,19.50
2022-10-18T09:49:48.489Z,18.92
2022-10-18T09:52:28.437Z,24.20
2022-10-18T09:55:03.419Z,24.15
2022-10-18T09:57:30.432Z,21.37
2022-10-18T09:59:58.975Z,22.92
2022-10-18T10:02:25.704Z,23.88
2022-10-18T10:04:54.312Z,23.13
2022-10-18T10:07:35.395Z,25.83
2022-10-18T10:10:28.606Z,19.80
2022-10-18T10:13:24.551Z,20.83
2022-10-18T10:15:56.758Z,26.98
2022-10-18T10:18:34.645Z,23.27
2022-10-18T10:21:05.741Z,21.65
2022-10-18T10:23:50.603Z,22.27
2022-10-18T10:26:23.133Z,20.35
2022-10-18T10:28:50.263Z,20.17
2022-10-18T10:31:16.984Z,19.20
2022-10-18T10:33:46.883Z,20.00
2022-10-18T10:36:21.457Z,20.67
2022-10-18T10:39:07.653Z,18.40
2022-10-18T10:41:34.982Z,21.38
2022-10-18T10:44:13.930Z,19.80
2022-10-18T10:46:40.834Z,18.52
2022-10-18T10:49:39.629Z,20.87
2022-10-18T10:52:09.381Z,21.50
2022-10-18T10:54:55.721Z,23.30
2022-10-18T10:57:28.880Z,23.58
2022-10-18T10:59:59.625Z,20.10
2022-10-18T11:02:31.206Z,22.63
2022-10-18T11:05:21.682Z,20.65
2022-10-18T11:07:52.988Z,20.80
2022-10-18T11:10:23.748Z,19.17
2022-10-18T11:12:56.248Z,22.70
2022-10-18T11:15:30.071Z,23.00
2022-10-18T11:18:20.101Z,23.70
2022-10-18T11:21:11.412Z,19.40
2022-10-18T11:23:40.074Z,18.30
2022-10-18T11:26:12.779Z,17.63
2022-10-18T11:28:42.578Z,17.37
2022-10-18T11:31:12.852Z,18.63
2022-10-18T11:34:17.044Z,16.42
2022-10-18T11:37:39.502Z,16.23
2022-10-18T11:40:30.665Z,14.90
2022-10-18T11:43:03.198Z,16.80
2022-10-18T11:45:41.848Z,14.98
2022-10-18T11:48:27.221Z,16.80
2022-10-18T11:51:10.385Z,16.35
2022-10-18T11:54:07.911Z,17.33
2022-10-18T11:57:05.304Z,14.80
2022-10-18T12:00:05.977Z,14.07
2022-10-18T12:02:53.990Z,14.85
2022-10-18T12:05:24.222Z,19.52
2022-10-18T12:08:02.053Z,14.02
2022-10-18T12:10:44.482Z,19.40
2022-10-18T12:13:25.581Z,15.35
2022-10-18T12:15:53.555Z,14.77
2022-10-18T12:18:23.251Z,16.65
2022-10-18T12:20:53.902Z,14.38
2022-10-18T12:23:30.353Z,15.20
2022-10-18T12:26:03.199Z,13.70
2022-10-18T12:28:32.739Z,17.25
2022-10-18T12:31:03.016Z,14.10
2022-10-18T12:33:38.375Z,15.57
2022-10-18T12:36:43.560Z,13.83
2022-10-18T12:39:16.327Z,13.20
2022-10-18T12:41:47.705Z,18.88
2022-10-18T12:44:28.901Z,12.68
2022-10-18T12:47:01.042Z,15.10
2022-10-18T12:49:34.295Z,13.37
2022-10-18T12:52:18.774Z,12.75
2022-10-18T12:55:24.199Z,12.85
2022-10-18T12:57:53.787Z,16.75
2022-10-18T13:00:29.668Z,14.02
2022-10-18T13:03:25.430Z,13.27
2022-10-18T13:05:54.330Z,12.15
2022-10-18T13:08:27.798Z,12.75
2022-10-18T13:11:12.330Z,15.10
2022-10-18T13:13:44.790Z,12.20
2022-10-18T13:16:23.347Z,9.77
2022-10-18T13:18:54.690Z,11.00
2022-10-18T13:21:40.924Z,10.70
2022-10-18T13:24:31.146Z,12.48
2022-10-18T13:27:35.140Z,10.25
2022-10-18T13:30:27.406Z,9.70
2022-10-18T13:33:17.234Z,10.40
2022-10-18T13:35:55.491Z,10.98
2022-10-18T13:38:31.127Z,11.77
2022-10-18T13:41:10.220Z,11.52
2022-10-18T13:44:13.786Z,10.80
2022-10-18T13:46:40.487Z,12.52
2022-10-18T13:49:35.039Z,10.63
2022-10-18T13:52:39.290Z,10.65
2022-10-18T13:55:27.504Z,10.68
2022-10-18T13:58:09.264Z,14.00
2022-10-18T14:00:48.796Z,11.10
2022-10-18T14:03:58.271Z,11.35
2022-10-18T14:06:36.197Z,10.23
2022-10-18T14:09:25.503Z,14.02
2022-10-18T14:12:19.124Z,9.97
2022-10-18T14:14:59.518Z,12.63
2022-10-18T14:20:17.814Z,11.90
2022-10-18T14:23:05.280Z,11.93
2022-10-18T14:25:35.818Z,12.40
2022-10-18T14:28:13.359Z,11.70
2022-10-18T14:30:54.351Z,14.30
2022-10-18T14:33:57.649Z,14.27
2022-10-18T14:36:27.121Z,12.40
2022-10-18T14:39:03.366Z,14.70
2022-10-18T14:41:33.004Z,15.65
2022-10-18T14:44:11.643Z,14.88
2022-10-18T14:46:47.563Z,14.00
2022-10-18T14:49:15.502Z,13.32
2022-10-18T14:51:44.352Z,16.60
2022-10-18T14:54:20.355Z,16.83
2022-10-18T14:56:48.090Z,14.25
2022-10-18T14:59:26.954Z,13.13
2022-10-18T15:02:03.190Z,17.42
2022-10-18T15:04:33.144Z,14.80
2022-10-18T15:07:08.211Z,17.88
2022-10-18T15:09:36.987Z,18.35
2022-10-18T15:12:06.113Z,16.65
2022-10-18T15:14:34.592Z,20.65
2022-10-18T15:17:36.782Z,21.00
2022-10-18T15:20:19.972Z,24.45
2022-10-18T15:22:46.936Z,20.67
2022-10-18T15:25:15.804Z,24.95
2022-10-18T15:27:49.300Z,21.60
2022-10-18T15:30:28.856Z,23.60
2022-10-18T15:32:56.794Z,23.70
2022-10-18T15:35:35.126Z,23.88
2022-10-18T15:38:21.268Z,25.73
2022-10-18T15:40:48.384Z,27.25
2022-10-18T15:43:23.885Z,23.43
2022-10-18T15:46:01.803Z,22.10
2022-10-18T15:48:41.613Z,23.02
2022-10-18T15:51:21.711Z,19.83
2022-10-18T15:53:52.603Z,23.65
2022-10-18T15:56:38.114Z,28.27
2022-10-18T15:59:20.669Z,22.90
2022-10-18T16:01:47.589Z,22.85
2022-10-18T16:04:24.370Z,21.17
2022-10-18T16:06:51.919Z,23.40
2022-10-18T16:09:20.893Z,25.27
2022-10-18T16:11:56.417Z,23.25
2022-10-18T16:14:26.455Z,22.58
2022-10-18T16:16:56.307Z,48.85
2022-10-18T16:19:23.088Z,54.05
2022-10-18T16:21:51.173Z,46.17
2022-10-18T16:24:19.752Z,37.55
2022-10-18T16:26:47.612Z,35.75
2022-10-18T16:29:21.820Z,29.27
2022-10-18T16:31:50.864Z,28.88
2022-10-18T16:34:18.463Z,27.93
2022-10-18T16:36:45.835Z,31.52
2022-10-18T16:39:19.173Z,33.30
2022-10-18T16:41:47.237Z,28.65
2022-10-18T16:44:15.652Z,25.80
2022-10-18T16:46:43.036Z,28.30
2022-10-18T16:49:24.684Z,38.65
2022-10-18T16:51:55.722Z,35.47
2022-10-18T16:54:23.492Z,50.72
2022-10-18T16:56:50.514Z,43.83
2022-10-18T16:59:27.298Z,44.77
2022-10-18T17:01:54.123Z,35.60
2022-10-18T17:04:20.995Z,34.28
2022-10-18T17:06:49.149Z,34.97
2022-10-18T17:09:16.536Z,29.95
2022-10-18T17:11:43.257Z,28.03
2022-10-18T17:14:10.025Z,28.83
2022-10-18T17:16:38.906Z,28.92
2022-10-18T17:19:10.290Z,32.40
2022-10-18T17:21:37.162Z,34.75
2022-10-18T17:24:06.012Z,28.27
2022-10-18T17:26:33.713Z,32.28
2022-10-18T17:29:03.939Z,23.45
2022-10-18T17:31:31.458Z,23.30
2022-10-18T17:34:01.519Z,21.75
2022-10-18T17:36:29.742Z,23.07
2022-10-18T17:38:57.179Z,21.15
2022-10-18T17:41:24.165Z,29.08
2022-10-18T17:43:51.254Z,23.38
2022-10-18T17:46:19.525Z,25.15
2022-10-18T17:48:46.456Z,24.53
2022-10-18T17:51:15.936Z,29.00
2022-10-18T17:53:42.895Z,54.13
2022-10-18T17:56:11.070Z,50.78
2022-10-18T17:58:37.904Z,37.25
2022-10-18T18:01:15.822Z,33.33
2022-10-18T18:03:42.979Z,36.65
2022-10-18T18:06:13.972Z,38.47
2022-10-18T18:08:40.791Z,47.53
2022-10-18T18:11:07.523Z,32.45
2022-10-18T18:13:34.399Z,23.90
2022-10-18T18:16:16.386Z,21.25
2022-10-18T18:18:44.414Z,20.90
2022-10-18T18:21:12.584Z,19.00
2022-10-18T18:23:39.515Z,16.75
2022-10-18T18:26:06.968Z,17.77
2022-10-18T18:28:36.021Z,17.08
2022-10-18T18:31:14.864Z,18.73
2022-10-18T18:33:42.238Z,34.97
2022-10-18T18:36:09.434Z,70.07
2022-10-18T18:38:38.844Z,52.10
2022-10-18T18:41:17.657Z,49.00
2022-10-18T18:43:49.273Z,48.72
2022-10-18T18:46:16.068Z,35.85
2022-10-18T18:48:42.970Z,30.65
2022-10-18T18:51:16.643Z,24.23
2022-10-18T18:53:44.480Z,19.63
2022-10-18T18:56:17.040Z,14.55
2022-10-18T18:58:45.161Z,15.25
2022-10-18T19:01:14.759Z,20.90
2022-10-18T19:03:42.870Z,18.40
2022-10-18T19:06:14.326Z,19.75
2022-10-18T19:08:41.835Z,16.42
2022-10-18T19:11:09.486Z,17.63
2022-10-18T19:13:36.778Z,14.88
2022-10-18T19:16:23.179Z,15.43
2022-10-18T19:18:58.173Z,20.05
2022-10-18T19:21:30.434Z,18.80
2022-10-18T19:23:58.135Z,81.80
2022-10-18T19:26:32.452Z,64.07
2022-10-18T19:29:24.311Z,20.63
2022-10-18T19:31:53.518Z,14.10
2022-10-18T19:34:21.613Z,17.73
2022-10-18T19:36:49.233Z,17.88
2022-10-18T19:39:30.200Z,19.63
2022-10-18T19:41:59.073Z,21.53
2022-10-18T19:44:29.056Z,33.42
2022-10-18T19:46:55.955Z,36.80
2022-10-18T19:49:22.795Z,29.65
2022-10-18T19:51:49.689Z,31.35
2022-10-18T19:54:16.894Z,24.33
2022-10-18T19:56:44.144Z,22.52
2022-10-18T19:59:13.112Z,26.30
2022-10-18T20:01:39.904Z,25.17
2022-10-18T20:04:09.082Z,26.00
2022-10-18T20:06:37.398Z,25.60
2022-10-18T20:09:05.291Z,25.60
2022-10-18T20:11:32.572Z,25.65
2022-10-18T20:13:59.835Z,22.27
2022-10-18T20:16:29.867Z,26.63
2022-10-18T20:19:01.623Z,25.70
2022-10-18T20:21:31.671Z,27.52
2022-10-18T20:23:58.743Z,25.38
2022-10-18T20:26:25.721Z,24.27
2022-10-18T20:28:57.240Z,24.73
2022-10-18T20:31:30.670Z,21.03
2022-10-18T20:34:00.296Z,22.00
2022-10-18T20:36:28.910Z,22.80
2022-10-18T20:38:56.090Z,26.60
2022-10-18T20:41:27.240Z,26.15
2022-10-18T20:43:58.830Z,22.13
2022-10-18T20:46:27.359Z,28.90
2022-10-18T20:48:54.727Z,20.65
2022-10-18T20:51:21.961Z,24.30
2022-10-18T20:53:49.242Z,22.23
2022-10-18T20:56:20.433Z,18.20
2022-10-18T20:58:49.814Z,20.42
2022-10-18T21:01:37.869Z,22.17
2022-10-18T21:04:07.007Z,20.92
2022-10-18T21:06:37.255Z,20.90
2022-10-18T21:09:16.568Z,18.07
2022-10-18T21:11:45.439Z,17.88
2022-10-18T21:14:15.087Z,18.50
2022-10-18T21:16:42.871Z,24.42
2022-10-18T21:19:15.460Z,20.08
2022-10-18T21:21:44.758Z,19.63
2022-10-18T21:24:12.907Z,18.92
2022-10-18T21:26:40.244Z,22.60
2022-10-18T21:29:07.573Z,18.00
2022-10-18T21:31:36.714Z,17.80
2022-10-18T21:34:06.429Z,21.10
2022-10-18T21:36:35.497Z,20.85
2022-10-18T21:39:04.154Z,16.63
2022-10-18T21:41:31.798Z,19.65
2022-10-18T21:43:58.491Z,19.90
2022-10-18T21:46:26.963Z,18.77
2022-10-18T21:48:56.427Z,16.85
2022-10-18T21:51:27.457Z,20.98
2022-10-18T21:53:56.059Z,19.63
2022-10-18T21:56:27.470Z,17.40
2022-10-18T21:58:54.903Z,18.23
2022-10-18T22:01:27.793Z,18.35
2022-10-18T22:03:56.497Z,18.30
2022-10-18T22:06:24.215Z,16.30
2022-10-18T22:08:53.390Z,17.95
2022-10-18T22:11:23.180Z,19.40
2022-10-18T22:13:49.941Z,17.15
2022-10-18T22:16:16.973Z,21.10
2022-10-18T22:18:45.921Z,16.90
2022-10-18T22:21:14.552Z,17.38
2022-10-18T22:23:49.952Z,18.10
2022-10-18T22:26:22.026Z,17.92
2022-10-18T22:28:58.209Z,21.15
2022-10-18T22:31:27.957Z,18.55
2022-10-18T22:33:56.591Z,20.45
2022-10-18T22:36:24.085Z,19.83
2022-10-18T22:38:51.314Z,18.35
2022-10-18T22:41:18.439Z,21.65
2022-10-18T22:43:45.496Z,21.80
2022-10-18T22:46:13.783Z,22.75
2022-10-18T22:48:40.969Z,21.83
2022-10-18T22:51:08.913Z,22.92
2022-10-18T22:53:36.522Z,20.45
2022-10-18T22:56:04.122Z,21.75
2022-10-18T22:58:30.813Z,22.33
2022-10-18T23:01:18.351Z,22.63
2022-10-18T23:03:45.446Z,23.73
2022-10-18T23:06:26.909Z,23.05
2022-10-18T23:08:55.026Z,22.73
2022-10-18T23:11:24.619Z,24.95
2022-10-18T23:13:51.534Z,23.17
2022-10-18T23:16:18.954Z,27.98
2022-10-18T23:18:54.059Z,25.45
2022-10-18T23:21:24.275Z,22.83
2022-10-18T23:23:51.993Z,25.58
2022-10-18T23:26:22.907Z,22.83
2022-10-18T23:28:51.233Z,23.58
2022-10-18T23:31:22.082Z,24.35
2022-10-18T23:33:51.156Z,26.98
2022-10-18T23:36:18.263Z,24.10
2022-10-18T23:38:45.077Z,22.63
2022-10-18T23:41:13.839Z,23.75
2022-10-18T23:43:41.539Z,29.70
2022-10-18T23:46:08.750Z,28.60
2022-10-18T23:52:47.474Z,22.87
2022-10-18T23:55:14.319Z,28.85
2022-10-18T23:57:41.137Z,24.33
